EDDC

Dresden Airport

Dresden, Germany
METAR EDDC 250020Z 19004KT CAVOK 11/08 Q1011
Observed Flight Rules
Apr-25 @ 00:20 UTC (16 minutes ago) Visual Flight Rules
Wind Visibility Clouds
190° at 4 knots 10,000+ meters
  • Clear skies
Temperatures Readings
Current 11°C / 52°F
Dewpoint 8°C / 46°F
Humidity 82%
Altimeter 29.85" Hg
Pressure 1011 hPa
Elevation 226
METAR EDDC 250020Z 19004KT CAVOK 11/08 Q1011
Observed Flight Rules
Apr-25 @ 00:20 UTC
(16 minutes ago)
VFR
Wind Visibility
190° at 4 knots 10,000+ meters
Clouds
  • Clear skies
Temperature Dewpoint
11°C / 52°F 8°C / 46°F
Humidity Altimeter Pressure
82% 29.85" Hg 1011 hPa